Time;durP1;ratioP1;P1;durP2;ratioP2;P2;SDS_P1;SDS_P2;PMS_P1;PMS_P2;Temp;Humidity;BMP_temperature;BMP_pressure;BME280_temperature;BME280_humidity;BME280_pressure;Samples;Min_cycle;Max_cycle;Signal;HPM_P1;HPM_P2
2022/01/08 00:01:09;;;;;;;0.30;0.30;;;;;;;3.46;81.89;100434.53;5077602;28;20456;-82
2022/01/08 00:03:40;;;;;;;1.45;1.35;;;;;;;3.34;82.69;100438.88;5075497;28;20034;-82
2022/01/08 00:06:12;;;;;;;0.60;0.60;;;;;;;3.27;83.01;100448.38;5079270;28;20227;-82
2022/01/08 00:08:43;;;;;;;0.60;0.60;;;;;;;3.19;82.47;100435.44;5084407;28;20094;-82
2022/01/08 00:11:18;;;;;;;1.10;1.10;;;;;;;3.21;83.04;100441.50;5075081;28;20173;-82
2022/01/08 00:13:48;;;;;;;0.50;0.50;;;;;;;3.24;82.75;100443.22;5083809;28;20139;-82
2022/01/08 00:16:19;;;;;;;0.40;0.40;;;;;;;3.20;83.25;100436.31;5058467;28;20079;-82
2022/01/08 00:18:52;;;;;;;0.45;0.45;;;;;;;3.19;83.41;100435.44;5097715;28;20065;-82
2022/01/08 00:21:23;;;;;;;0.50;0.50;;;;;;;3.24;83.15;100435.44;5108939;28;20048;-82
2022/01/08 00:23:53;;;;;;;0.55;0.55;;;;;;;3.30;82.66;100438.03;5055534;28;20033;-82
2022/01/08 00:26:24;;;;;;;0.40;0.40;;;;;;;3.35;82.93;100441.47;5053741;28;20080;-82
2022/01/08 00:28:54;;;;;;;1.75;1.65;;;;;;;3.30;82.57;100445.81;5083023;28;20041;-82
2022/01/08 00:31:25;;;;;;;0.40;0.40;;;;;;;3.24;82.84;100436.28;5068728;28;20055;-82
2022/01/08 00:33:58;;;;;;;0.50;0.50;;;;;;;3.33;83.07;100448.41;5080707;28;20031;-82
2022/01/08 00:36:29;;;;;;;1.27;1.27;;;;;;;3.44;82.95;100451.81;5073707;28;20040;-82
2022/01/08 00:38:59;;;;;;;0.40;0.40;;;;;;;3.47;82.29;100446.63;5076890;28;20108;-81
2022/01/08 00:41:33;;;;;;;1.05;1.05;;;;;;;3.37;82.99;100452.69;5094770;28;20052;-82
2022/01/08 00:44:04;;;;;;;0.60;0.60;;;;;;;3.35;82.59;100457.03;5054863;29;20458;-82
2022/01/08 00:46:34;;;;;;;1.02;1.02;;;;;;;3.50;82.84;100460.47;5076278;28;20081;-82
2022/01/08 00:49:05;;;;;;;0.47;0.47;;;;;;;3.56;81.88;100460.44;5102223;28;20052;-82
2022/01/08 00:51:35;;;;;;;0.30;0.30;;;;;;;3.51;82.30;100467.41;5087072;28;20242;-82
2022/01/08 00:54:06;;;;;;;0.88;0.88;;;;;;;3.55;82.46;100458.72;5099821;28;20322;-82
2022/01/08 00:56:37;;;;;;;0.60;0.60;;;;;;;3.52;82.00;100469.97;5065049;28;20038;-82
2022/01/08 00:59:08;;;;;;;0.40;0.40;;;;;;;3.55;82.17;100474.28;5090784;28;20033;-82
2022/01/08 01:01:38;;;;;;;0.50;0.50;;;;;;;3.53;81.49;100470.81;5077550;28;20465;-82
2022/01/08 01:04:09;;;;;;;0.40;0.40;;;;;;;3.42;81.86;100473.44;5038456;29;20664;-82
2022/01/08 01:06:39;;;;;;;0.40;0.40;;;;;;;3.36;82.95;100476.06;5043598;28;20033;-82
2022/01/08 01:09:10;;;;;;;0.77;0.77;;;;;;;3.46;81.93;100476.03;5046237;28;20512;-82
2022/01/08 01:11:41;;;;;;;0.40;0.40;;;;;;;3.36;82.26;100471.72;5059646;28;20107;-82
2022/01/08 01:14:11;;;;;;;0.80;0.80;;;;;;;3.38;82.11;100472.59;5072772;28;20090;-82
2022/01/08 01:16:42;;;;;;;0.95;0.95;;;;;;;3.57;81.72;100470.81;5095136;28;20052;-82
2022/01/08 01:19:13;;;;;;;0.63;0.63;;;;;;;3.30;81.67;100470.03;5077274;28;20041;-82
2022/01/08 01:21:43;;;;;;;0.47;0.47;;;;;;;3.44;81.87;100467.38;5068698;28;20056;-82
2022/01/08 01:24:21;;;;;;;0.40;0.40;;;;;;;3.20;82.11;100467.41;5037876;28;20561;-82
2022/01/08 01:43:36;;;;;;;0.40;0.40;;;;;;;2.91;81.87;100487.28;5067526;28;20048;-83
2022/01/08 01:48:56;;;;;;;2.88;1.98;;;;;;;3.09;81.70;100477.78;5099368;28;20441;-82
2022/01/08 01:51:26;;;;;;;0.75;0.75;;;;;;;3.14;82.17;100481.28;5058933;28;20076;-82
2022/01/08 01:54:00;;;;;;;0.82;0.82;;;;;;;3.00;81.83;100486.44;5054403;28;20041;-82
2022/01/08 01:56:30;;;;;;;0.52;0.52;;;;;;;3.09;81.90;100491.63;5107627;28;20055;-82
2022/01/08 01:59:01;;;;;;;0.40;0.40;;;;;;;3.20;81.29;100489.03;5077743;28;20035;-82
2022/01/08 02:01:32;;;;;;;0.60;0.60;;;;;;;3.24;81.26;100487.31;5068231;28;20052;-82
2022/01/08 02:04:02;;;;;;;0.60;0.60;;;;;;;3.29;81.40;100483.84;5077554;28;20310;-82
2022/01/08 02:06:33;;;;;;;0.40;0.40;;;;;;;3.39;80.72;100483.84;5082788;28;20037;-82
2022/01/08 02:09:06;;;;;;;0.55;0.55;;;;;;;3.26;80.64;100485.59;5073552;28;20082;-82
2022/01/08 02:11:56;;;;;;;;;;;;;;;3.26;81.31;100488.19;5087625;28;20046;-82
2022/01/08 02:14:28;;;;;;;0.50;0.50;;;;;;;3.35;80.32;100490.72;5094779;28;19920;-82
2022/01/08 02:17:09;;;;;;;1.20;1.15;;;;;;;3.27;80.63;100489.88;5072379;28;20027;-82
2022/01/08 02:19:40;;;;;;;0.50;0.50;;;;;;;2.90;81.46;100484.72;5069080;28;20037;-82
2022/01/08 02:22:15;;;;;;;0.40;0.40;;;;;;;2.88;81.84;100491.63;5086755;28;20082;-82
2022/01/08 02:24:47;;;;;;;0.50;0.50;;;;;;;2.92;81.55;100485.59;5067372;28;20054;-82
2022/01/08 02:27:18;;;;;;;0.30;0.30;;;;;;;3.04;81.20;100492.50;5078305;28;20016;-81
2022/01/08 02:29:50;;;;;;;0.60;0.60;;;;;;;2.99;81.78;100490.75;5105584;28;20054;-81
2022/01/08 02:32:29;;;;;;;1.33;1.33;;;;;;;3.01;81.11;100488.19;5094020;28;20103;-82
2022/01/08 02:34:59;;;;;;;0.40;0.40;;;;;;;3.02;81.47;100489.88;5091025;28;20051;-81
2022/01/08 02:37:30;;;;;;;0.40;0.40;;;;;;;2.97;81.06;100492.50;5077535;28;20442;-81
2022/01/08 02:40:02;;;;;;;2.08;1.02;;;;;;;2.97;81.80;100491.63;5085823;28;20044;-82
2022/01/08 02:42:39;;;;;;;0.68;0.68;;;;;;;3.10;81.93;100492.50;5078928;28;20523;-81
2022/01/08 02:45:12;;;;;;;0.73;0.73;;;;;;;3.08;80.26;100502.88;5098122;28;20056;-81
2022/01/08 02:47:44;;;;;;;0.50;0.50;;;;;;;3.02;80.74;100491.63;5087182;28;20437;-81
2022/01/08 02:50:16;;;;;;;0.63;0.63;;;;;;;2.97;81.10;100486.44;5063651;28;20040;-81
2022/01/08 02:52:47;;;;;;;1.40;1.33;;;;;;;3.01;81.23;100483.00;5060553;28;20149;-81
2022/01/08 02:55:20;;;;;;;0.43;0.43;;;;;;;2.93;81.02;100476.94;5079784;28;20040;-81
2022/01/08 02:57:51;;;;;;;1.02;1.02;;;;;;;2.91;80.89;100496.81;5084311;28;20038;-81
2022/01/08 03:00:22;;;;;;;0.40;0.40;;;;;;;2.97;81.19;100496.81;5080152;28;20045;-82
2022/01/08 03:02:53;;;;;;;0.50;0.50;;;;;;;2.94;81.09;100491.59;5092649;28;20037;-82
2022/01/08 03:05:23;;;;;;;1.20;1.17;;;;;;;2.88;81.35;100495.09;5059738;28;20096;-81
2022/01/08 03:07:54;;;;;;;0.65;0.65;;;;;;;2.66;81.40;100501.97;5095352;28;20085;-81
2022/01/08 03:10:24;;;;;;;0.95;0.95;;;;;;;2.64;82.13;100509.75;5090653;28;20039;-82
2022/01/08 03:12:55;;;;;;;0.75;0.75;;;;;;;2.83;81.43;100509.75;5081865;28;20512;-81
2022/01/08 03:15:26;;;;;;;0.68;0.68;;;;;;;2.72;81.48;100509.72;5098515;28;20059;-81
2022/01/08 03:17:59;;;;;;;0.60;0.60;;;;;;;2.66;81.65;100513.16;5039026;28;20028;-81
2022/01/08 03:20:30;;;;;;;0.40;0.40;;;;;;;2.45;81.52;100513.13;5063178;28;20040;-81
2022/01/08 03:23:03;;;;;;;0.40;0.40;;;;;;;2.40;82.12;100525.22;5066623;28;20040;-82
2022/01/08 03:25:33;;;;;;;0.60;0.60;;;;;;;2.52;82.02;100520.91;5096823;28;20038;-81
2022/01/08 03:28:04;;;;;;;0.85;0.85;;;;;;;2.41;81.61;100532.09;5060896;29;20673;-81
2022/01/08 03:30:34;;;;;;;0.73;0.73;;;;;;;2.56;81.07;100532.16;5089131;28;20503;-81
2022/01/08 03:33:05;;;;;;;1.33;1.30;;;;;;;2.52;81.79;100541.63;5062828;28;20111;-81
2022/01/08 03:35:36;;;;;;;2.03;1.45;;;;;;;2.59;81.42;100541.66;5080114;28;20027;-81
2022/01/08 03:38:06;;;;;;;0.70;0.70;;;;;;;2.43;82.13;100535.56;5094033;28;20145;-81
2022/01/08 03:40:37;;;;;;;0.45;0.45;;;;;;;2.41;82.09;100527.78;5045539;28;20119;-82
2022/01/08 03:43:07;;;;;;;0.57;0.57;;;;;;;2.56;81.70;100539.94;5078602;28;20138;-82
2022/01/08 03:45:41;;;;;;;0.65;0.65;;;;;;;2.37;82.13;100531.22;5084144;28;20035;-81
2022/01/08 03:48:26;;;;;;;0.52;0.52;;;;;;;2.37;82.07;100544.16;5096825;28;20128;-81
2022/01/08 03:50:56;;;;;;;0.50;0.50;;;;;;;2.49;81.34;100541.63;5098535;28;20027;-81
2022/01/08 03:53:29;;;;;;;0.52;0.52;;;;;;;2.52;81.25;100543.38;5102522;28;20286;-81
2022/01/08 03:56:00;;;;;;;0.80;0.80;;;;;;;2.32;82.40;100540.72;5056382;28;20050;-81
2022/01/08 03:58:30;;;;;;;0.98;0.98;;;;;;;2.41;82.02;100547.63;5108073;28;20021;-82
2022/01/08 04:01:01;;;;;;;0.40;0.40;;;;;;;2.46;82.03;100551.97;5084356;28;20102;-81
2022/01/08 04:03:32;;;;;;;0.60;0.60;;;;;;;2.35;81.56;100559.72;5064824;28;20033;-81
2022/01/08 04:06:02;;;;;;;0.95;0.95;;;;;;;2.49;81.57;100559.75;5100922;28;20048;-81
2022/01/08 04:08:33;;;;;;;0.70;0.70;;;;;;;2.49;81.64;100561.47;5071820;28;20091;-81
2022/01/08 04:11:04;;;;;;;0.50;0.50;;;;;;;2.61;81.30;100560.66;5110589;28;20123;-82
2022/01/08 04:13:37;;;;;;;0.75;0.75;;;;;;;2.59;81.01;100563.25;5066652;28;20022;-82
2022/01/08 04:16:15;;;;;;;0.50;0.50;;;;;;;2.38;81.12;100574.38;5057223;28;20079;-82
2022/01/08 04:18:45;;;;;;;0.50;0.50;;;;;;;2.18;82.20;100572.59;5072656;28;20111;-82
2022/01/08 04:23:58;;;;;;;2.05;1.23;;;;;;;2.15;82.89;100582.91;5073701;28;20075;-79
2022/01/08 04:26:28;;;;;;;0.50;0.50;;;;;;;2.24;82.52;100576.91;5068430;28;20037;-80
2022/01/08 04:28:59;;;;;;;0.82;0.82;;;;;;;2.00;82.94;100588.00;5071971;28;20469;-79
2022/01/08 04:31:29;;;;;;;1.25;1.13;;;;;;;2.10;82.84;100589.81;5104732;28;20053;-79
2022/01/08 04:34:00;;;;;;;3.30;2.28;;;;;;;2.20;82.74;100581.19;5067361;28;20094;-79
2022/01/08 04:36:30;;;;;;;0.68;0.68;;;;;;;2.29;82.37;100588.16;5070060;28;20056;-79
2022/01/08 04:39:01;;;;;;;0.88;0.88;;;;;;;2.29;82.10;100590.75;5067125;28;20029;-79
2022/01/08 04:41:32;;;;;;;0.63;0.63;;;;;;;2.22;82.19;100586.41;5078334;28;20052;-79
2022/01/08 04:44:05;;;;;;;0.65;0.65;;;;;;;2.09;82.80;100582.88;5080788;28;20042;-79
2022/01/08 04:46:40;;;;;;;0.52;0.52;;;;;;;2.03;83.00;100580.25;5080481;28;20027;-79
2022/01/08 04:49:11;;;;;;;0.85;0.85;;;;;;;1.83;83.26;100583.59;5082735;28;20209;-79
2022/01/08 04:51:41;;;;;;;1.05;1.05;;;;;;;1.83;83.50;100588.75;5092988;28;20134;-79
2022/01/08 04:54:12;;;;;;;0.52;0.52;;;;;;;1.83;83.66;100593.06;5084858;28;20045;-79
2022/01/08 04:56:45;;;;;;;;;;;;;;;1.89;83.10;100596.56;5068210;28;20050;-79
2022/01/08 04:59:17;;;;;;;0.40;0.40;;;;;;;1.85;83.95;100592.25;5090397;28;19915;-79
2022/01/08 05:01:49;;;;;;;9.63;2.45;;;;;;;1.79;83.94;100594.75;5067728;28;20510;-79
2022/01/08 05:04:21;;;;;;;0.88;0.88;;;;;;;1.69;84.52;100599.00;5057566;28;20048;-80
2022/01/08 05:06:51;;;;;;;0.60;0.60;;;;;;;1.70;84.11;100602.44;5064619;28;20025;-79
2022/01/08 05:09:21;;;;;;;0.77;0.77;;;;;;;1.73;83.61;100602.47;5078254;28;20031;-79
2022/01/08 05:11:52;;;;;;;0.52;0.52;;;;;;;1.74;83.69;100609.41;5088337;28;20028;-79
2022/01/08 05:14:23;;;;;;;0.63;0.63;;;;;;;1.89;83.57;100601.72;5088919;28;20172;-79
2022/01/08 05:16:58;;;;;;;1.75;1.65;;;;;;;1.82;83.22;100602.56;5051745;28;20027;-79
2022/01/08 05:19:49;;;;;;;1.05;1.05;;;;;;;1.77;83.78;100593.03;5069570;28;20025;-79
2022/01/08 05:22:28;;;;;;;2.25;0.88;;;;;;;1.80;83.68;100606.84;5084046;28;20413;-79
2022/01/08 05:24:59;;;;;;;1.10;1.10;;;;;;;1.86;83.29;100603.44;5069315;28;20053;-79
2022/01/08 05:27:32;;;;;;;1.08;1.08;;;;;;;1.66;83.91;100611.06;5088821;28;20489;-79
2022/01/08 05:30:04;;;;;;;0.70;0.70;;;;;;;1.88;83.90;100605.19;5076598;28;20073;-79
2022/01/08 05:32:34;;;;;;;2.35;2.15;;;;;;;1.76;83.50;100605.09;5093400;28;20549;-79
2022/01/08 05:35:05;;;;;;;0.50;0.50;;;;;;;1.62;84.06;100614.47;5060107;28;20135;-79
2022/01/08 05:37:36;;;;;;;0.95;0.95;;;;;;;1.64;83.83;100617.94;5090639;28;20026;-79
2022/01/08 05:40:09;;;;;;;0.90;0.90;;;;;;;1.61;84.35;100620.50;5057991;28;20044;-79
2022/01/08 05:42:40;;;;;;;0.68;0.68;;;;;;;1.63;83.44;100621.38;5095351;28;20403;-79
2022/01/08 05:45:11;;;;;;;0.50;0.50;;;;;;;1.62;83.93;100620.50;5062149;28;20052;-79
2022/01/08 05:47:41;;;;;;;1.05;0.98;;;;;;;1.73;83.83;100620.59;5089046;28;20029;-79
2022/01/08 05:50:12;;;;;;;0.50;0.50;;;;;;;1.51;84.63;100623.03;5050860;28;20048;-77
2022/01/08 05:52:43;;;;;;;0.55;0.55;;;;;;;1.46;84.84;100635.03;5095124;28;20159;-77
2022/01/08 05:55:15;;;;;;;0.98;0.98;;;;;;;1.49;84.87;100629.03;5078791;28;20044;-79
2022/01/08 05:57:46;;;;;;;0.45;0.45;;;;;;;1.36;85.57;100620.31;5085074;28;20268;-78
2022/01/08 06:00:17;;;;;;;1.30;1.27;;;;;;;1.43;85.12;100632.44;5092083;28;20032;-78
2022/01/08 06:02:47;;;;;;;1.25;1.23;;;;;;;1.39;85.17;100628.94;5071345;28;20413;-78
2022/01/08 06:05:21;;;;;;;2.20;1.80;;;;;;;1.32;85.71;100631.44;5076151;28;20047;-78
2022/01/08 06:07:51;;;;;;;0.73;0.73;;;;;;;1.29;85.63;100637.47;5097682;28;20084;-78
2022/01/08 06:10:22;;;;;;;0.93;0.93;;;;;;;1.27;85.66;100638.31;5078947;28;20037;-77
2022/01/08 06:12:55;;;;;;;0.50;0.50;;;;;;;1.29;85.87;100641.75;5081705;28;20044;-78
2022/01/08 06:15:26;;;;;;;0.93;0.93;;;;;;;1.23;85.72;100640.84;5057321;28;20051;-78
2022/01/08 06:17:59;;;;;;;0.50;0.50;;;;;;;1.31;85.85;100642.63;5061842;28;20090;-78
2022/01/08 06:20:30;;;;;;;1.17;1.17;;;;;;;1.42;85.59;100657.41;5075615;28;20072;-78
2022/01/08 06:23:03;;;;;;;0.50;0.50;;;;;;;1.31;85.56;100669.38;5053473;28;20626;-78
2022/01/08 06:25:34;;;;;;;0.57;0.57;;;;;;;1.22;85.87;100662.38;5085429;28;20042;-78
2022/01/08 06:28:04;;;;;;;0.85;0.85;;;;;;;1.32;85.80;100659.88;5055735;29;20028;-78
2022/01/08 06:30:35;;;;;;;0.70;0.70;;;;;;;1.31;85.80;100664.19;5062743;28;20062;-78
2022/01/08 06:33:05;;;;;;;1.00;1.00;;;;;;;1.27;86.07;100671.91;5078689;28;20613;-78
2022/01/08 06:35:36;;;;;;;2.17;1.98;;;;;;;1.27;86.08;100671.91;5076821;28;20026;-78
2022/01/08 06:38:06;;;;;;;0.85;0.82;;;;;;;1.36;86.04;100682.34;5087362;28;20024;-77
2022/01/08 06:40:36;;;;;;;0.57;0.57;;;;;;;1.21;86.25;100681.31;5074103;28;20102;-77
2022/01/08 06:43:07;;;;;;;1.30;1.23;;;;;;;1.24;86.70;100678.78;5070511;28;20028;-78
2022/01/08 06:45:37;;;;;;;0.68;0.68;;;;;;;1.24;86.41;100678.78;5074859;28;20062;-78
2022/01/08 06:48:08;;;;;;;1.38;1.33;;;;;;;1.17;86.55;100670.94;5057234;28;20489;-78
2022/01/08 06:50:39;;;;;;;0.52;0.52;;;;;;;1.18;86.93;100676.13;5078537;28;20045;-78
2022/01/08 06:53:09;;;;;;;0.70;0.70;;;;;;;1.21;86.37;100678.72;5055770;28;20159;-78
2022/01/08 06:55:40;;;;;;;0.80;0.80;;;;;;;1.21;86.46;100681.31;5070789;28;20039;-78
2022/01/08 06:58:10;;;;;;;1.25;1.25;;;;;;;1.19;86.70;100685.63;5081269;28;20036;-78
2022/01/08 07:00:41;;;;;;;2.03;1.00;;;;;;;1.17;86.72;100676.97;5110666;28;20406;-78
2022/01/08 07:03:11;;;;;;;1.50;1.25;;;;;;;1.16;86.13;100674.38;5080207;28;20043;-78
2022/01/08 07:05:47;;;;;;;0.60;0.60;;;;;;;1.18;86.28;100683.00;5080425;28;20030;-78
2022/01/08 07:08:18;;;;;;;0.70;0.70;;;;;;;1.24;86.17;100688.25;5098174;28;20029;-79
2022/01/08 07:10:48;;;;;;;3.63;1.88;;;;;;;1.18;86.21;100683.88;5067256;28;20398;-79
2022/01/08 07:13:20;;;;;;;0.45;0.45;;;;;;;1.18;86.04;100685.59;5080323;28;20044;-78
2022/01/08 07:15:50;;;;;;;2.88;2.47;;;;;;;1.23;85.91;100692.53;5067834;28;20113;-78
2022/01/08 07:18:21;;;;;;;0.82;0.82;;;;;;;1.25;85.50;100693.44;5059642;28;20049;-79
2022/01/08 07:20:51;;;;;;;3.92;1.48;;;;;;;1.26;86.00;100691.69;5096094;28;20530;-78
2022/01/08 07:23:24;;;;;;;3.42;2.83;;;;;;;1.37;85.77;100694.41;5091787;28;20430;-78
2022/01/08 07:25:55;;;;;;;1.70;1.00;;;;;;;1.23;85.58;100702.03;5070512;28;20041;-78
2022/01/08 07:28:25;;;;;;;0.95;0.95;;;;;;;1.15;86.03;100699.34;5094983;28;20024;-78
2022/01/08 07:30:56;;;;;;;0.70;0.70;;;;;;;1.36;85.88;100692.69;5075305;28;20096;-78
2022/01/08 07:33:26;;;;;;;0.50;0.50;;;;;;;1.44;85.31;100693.63;5088640;28;20127;-78
2022/01/08 07:35:57;;;;;;;1.05;1.05;;;;;;;1.47;85.09;100687.63;5086946;28;20036;-78
2022/01/08 07:38:28;;;;;;;1.25;1.23;;;;;;;1.61;84.67;100687.75;5094434;28;20040;-78
2022/01/08 07:40:58;;;;;;;0.75;0.75;;;;;;;1.46;85.16;100691.91;5096978;28;20120;-78
2022/01/08 07:43:29;;;;;;;2.83;2.28;;;;;;;1.27;85.89;100690.84;5055690;28;20702;-78
2022/01/08 07:45:59;;;;;;;2.28;2.10;;;;;;;1.29;85.93;100690.88;5086130;28;20044;-78
2022/01/08 07:48:30;;;;;;;0.85;0.85;;;;;;;1.30;86.02;100695.19;5056789;28;20048;-78
2022/01/08 07:51:03;;;;;;;1.80;1.70;;;;;;;1.32;85.76;100698.66;5090707;28;20041;-78
2022/01/08 07:53:34;;;;;;;2.90;1.70;;;;;;;1.37;85.59;100692.69;5043536;28;20037;-78
2022/01/08 07:56:05;;;;;;;0.80;0.80;;;;;;;1.37;85.72;100700.44;5078656;28;20045;-78
2022/01/08 07:58:35;;;;;;;3.50;2.05;;;;;;;1.33;86.21;100700.41;5085706;28;20035;-78
2022/01/08 08:01:06;;;;;;;1.73;1.63;;;;;;;1.35;87.04;100696.97;5063917;28;20099;-78
2022/01/08 08:03:36;;;;;;;0.50;0.50;;;;;;;1.34;86.86;100696.97;5087005;28;20064;-78
2022/01/08 08:06:11;;;;;;;0.90;0.90;;;;;;;1.35;87.15;100696.13;5077015;28;20051;-78
2022/01/08 08:08:44;;;;;;;1.42;1.42;;;;;;;1.42;87.12;100695.31;5070678;28;20039;-77
2022/01/08 08:11:14;;;;;;;3.03;1.55;;;;;;;1.35;87.03;100686.63;5091625;28;20037;-78
2022/01/08 08:13:45;;;;;;;1.83;1.40;;;;;;;1.42;86.88;100685.84;5060875;28;20090;-78
2022/01/08 08:16:15;;;;;;;2.55;2.38;;;;;;;1.35;87.21;100685.78;5104243;28;20116;-78
2022/01/08 08:18:46;;;;;;;0.98;0.98;;;;;;;1.34;87.44;100681.47;5100703;28;20022;-78
2022/01/08 08:21:17;;;;;;;1.48;1.42;;;;;;;1.38;87.30;100680.63;5065043;28;20037;-78
2022/01/08 08:23:47;;;;;;;1.33;1.33;;;;;;;1.35;87.55;100685.78;5072340;28;20038;-78
2022/01/08 08:26:18;;;;;;;0.55;0.55;;;;;;;1.37;87.35;100684.06;5059010;28;20060;-78
2022/01/08 08:28:48;;;;;;;0.55;0.55;;;;;;;1.40;87.80;100678.94;5047958;28;20089;-78
2022/01/08 08:31:19;;;;;;;0.50;0.50;;;;;;;1.42;87.38;100672.06;5042869;28;20061;-78
2022/01/08 08:33:49;;;;;;;3.33;1.45;;;;;;;1.50;87.25;100673.00;5060954;28;20054;-78
2022/01/08 08:36:23;;;;;;;1.17;1.08;;;;;;;1.47;87.26;100678.13;5059688;28;20040;-78
2022/01/08 08:38:53;;;;;;;2.55;1.50;;;;;;;1.48;87.43;100672.09;5073365;28;20029;-78
2022/01/08 08:41:25;;;;;;;1.02;1.02;;;;;;;1.60;87.43;100675.69;5059212;28;20048;-78
2022/01/08 08:43:56;;;;;;;7.10;2.90;;;;;;;1.57;87.51;100679.09;5070434;28;20083;-78
2022/01/08 08:46:26;;;;;;;0.95;0.95;;;;;;;1.61;87.48;100682.59;5095293;28;20575;-78
2022/01/08 08:48:57;;;;;;;2.17;2.08;;;;;;;1.60;87.49;100686.88;5092552;28;20034;-78
2022/01/08 08:51:27;;;;;;;1.20;1.20;;;;;;;1.64;87.17;100678.31;5076669;28;20524;-78
2022/01/08 08:53:57;;;;;;;1.15;1.15;;;;;;;1.67;87.25;100673.13;5045164;28;20513;-78
2022/01/08 08:56:29;;;;;;;0.70;0.70;;;;;;;1.73;86.77;100667.16;5077291;28;20044;-78
2022/01/08 08:59:00;;;;;;;0.40;0.40;;;;;;;1.75;86.39;100670.63;5063855;28;20029;-78
2022/01/08 09:01:30;;;;;;;0.85;0.85;;;;;;;1.80;86.63;100674.09;5070556;28;20107;-78
2022/01/08 09:04:01;;;;;;;1.45;1.35;;;;;;;1.86;86.45;100656.03;5051807;28;20029;-78
2022/01/08 09:06:32;;;;;;;0.95;0.95;;;;;;;1.88;86.18;100666.41;5086695;28;20151;-78
2022/01/08 09:09:03;;;;;;;1.40;1.40;;;;;;;1.96;86.15;100666.47;5077186;28;20502;-79
2022/01/08 09:11:34;;;;;;;0.50;0.50;;;;;;;1.98;86.16;100669.94;5066547;28;20556;-78
2022/01/08 09:14:08;;;;;;;1.48;1.38;;;;;;;1.99;86.09;100663.91;5066868;28;20087;-78
2022/01/08 09:16:46;;;;;;;1.15;1.15;;;;;;;2.04;86.47;100673.44;5087955;28;20049;-78
2022/01/08 09:19:17;;;;;;;0.85;0.85;;;;;;;2.09;85.63;100665.72;5076492;28;20334;-78
2022/01/08 09:21:50;;;;;;;0.70;0.70;;;;;;;2.12;86.07;100665.72;5069616;28;20046;-78
2022/01/08 09:24:21;;;;;;;0.77;0.77;;;;;;;2.19;85.40;100666.63;5078277;28;20547;-78
2022/01/08 09:26:52;;;;;;;1.67;1.58;;;;;;;2.15;85.95;100660.56;5047935;28;20021;-78
2022/01/08 09:29:22;;;;;;;1.00;1.00;;;;;;;2.14;85.29;100664.00;5072749;28;20513;-78
2022/01/08 09:31:53;;;;;;;0.63;0.63;;;;;;;2.10;85.97;100667.44;5060171;28;20033;-78
2022/01/08 09:34:23;;;;;;;1.95;1.85;;;;;;;2.17;85.88;100665.75;5081988;28;20279;-79
2022/01/08 09:36:54;;;;;;;1.02;1.02;;;;;;;2.15;86.05;100664.91;5095885;28;20036;-78
2022/01/08 09:39:27;;;;;;;1.23;1.23;;;;;;;2.22;85.57;100663.19;5085194;28;20120;-78
2022/01/08 09:41:59;;;;;;;1.58;1.52;;;;;;;2.26;84.90;100660.63;5093237;28;20410;-78
2022/01/08 09:44:29;;;;;;;0.95;0.95;;;;;;;2.28;84.83;100658.03;5084805;28;20103;-78
2022/01/08 09:47:00;;;;;;;1.02;1.02;;;;;;;2.25;85.19;100665.81;5078343;28;20027;-78
2022/01/08 09:49:32;;;;;;;0.77;0.77;;;;;;;2.27;84.71;100656.34;5062279;28;20032;-78
2022/01/08 09:52:03;;;;;;;1.00;1.00;;;;;;;2.34;85.03;100655.50;5049951;29;20178;-78
2022/01/08 09:54:34;;;;;;;0.90;0.90;;;;;;;2.33;84.86;100653.78;5062056;28;20070;-78
2022/01/08 09:57:05;;;;;;;0.50;0.50;;;;;;;2.31;85.02;100647.72;5059218;29;20040;-78
2022/01/08 09:59:39;;;;;;;1.25;1.25;;;;;;;2.42;85.06;100647.78;5094685;28;20087;-78
2022/01/08 10:02:11;;;;;;;;;;;;;;;2.36;83.98;100640.81;5086376;28;20036;-78
2022/01/08 10:04:43;;;;;;;0.52;0.52;;;;;;;2.42;84.00;100635.72;5057848;28;19953;-79
2022/01/08 10:07:16;;;;;;;2.13;2.03;;;;;;;2.38;83.60;100627.91;5042135;29;20037;-78
2022/01/08 10:10:02;;;;;;;;;;;;;;;2.38;84.03;100615.81;5075840;28;20042;-78
2022/01/08 10:12:48;;;;;;;1.10;1.10;;;;;;;2.40;83.77;100606.34;5092480;28;20361;-78
2022/01/08 10:18:30;;;;;;;1.00;1.00;;;;;;;2.42;82.76;100603.75;5099715;28;20369;-78
2022/01/08 10:21:13;;;;;;;3.42;2.05;;;;;;;2.48;83.38;100602.06;5058997;28;20422;-78
2022/01/08 10:23:54;;;;;;;0.75;0.75;;;;;;;2.54;83.16;100595.16;5074116;28;20045;-78
2022/01/08 10:26:32;;;;;;;0.40;0.40;;;;;;;2.54;82.83;100593.44;5077354;28;20052;-78
2022/01/08 10:29:13;;;;;;;0.60;0.60;;;;;;;2.52;82.51;100590.84;5034657;29;20397;-78
2022/01/08 10:31:47;;;;;;;0.52;0.52;;;;;;;2.51;81.87;100576.19;5060995;28;20169;-78
2022/01/08 10:34:23;;;;;;;1.13;1.13;;;;;;;2.54;82.38;100577.91;5039901;28;20091;-78
2022/01/08 10:37:02;;;;;;;0.80;0.80;;;;;;;2.46;81.29;100577.88;5093818;28;20077;-78
2022/01/08 10:39:34;;;;;;;0.60;0.60;;;;;;;2.48;81.22;100565.78;5060405;28;20612;-77
2022/01/08 10:42:10;;;;;;;1.42;1.35;;;;;;;2.50;80.55;100553.72;5056052;28;20564;-78
2022/01/08 10:44:42;;;;;;;0.65;0.65;;;;;;;2.57;81.86;100553.75;5074806;28;20097;-78
2022/01/08 10:47:20;;;;;;;0.88;0.88;;;;;;;2.60;81.11;100548.56;5092400;28;20704;-78
2022/01/08 10:50:03;;;;;;;2.58;1.45;;;;;;;2.63;80.67;100538.22;5083980;28;20063;-78
2022/01/08 10:52:46;;;;;;;1.20;1.20;;;;;;;2.67;80.16;100534.78;5057976;28;20500;-78
2022/01/08 10:55:30;;;;;;;0.50;0.50;;;;;;;2.71;79.61;100526.13;5077844;28;20095;-79
2022/01/08 10:58:00;;;;;;;3.42;1.67;;;;;;;2.80;79.92;100512.34;5075985;28;20037;-79
2022/01/08 11:00:32;;;;;;;0.40;0.40;;;;;;;2.74;79.41;100505.44;5116960;28;20693;-79
2022/01/08 11:03:02;;;;;;;0.70;0.70;;;;;;;2.86;79.23;100493.34;5077784;28;20037;-79
2022/01/08 11:05:33;;;;;;;2.17;2.05;;;;;;;2.89;79.87;100488.16;5097481;28;20486;-79
2022/01/08 11:08:13;;;;;;;0.95;0.95;;;;;;;2.91;80.16;100491.63;5044247;29;20026;-78
2022/01/08 11:10:47;;;;;;;0.77;0.77;;;;;;;2.94;80.39;100486.44;5041148;28;20048;-79
2022/01/08 11:13:18;;;;;;;0.85;0.85;;;;;;;2.98;80.79;100477.81;5070526;28;20092;-79
2022/01/08 11:15:51;;;;;;;0.50;0.50;;;;;;;3.02;80.61;100468.31;5058174;28;20074;-79
2022/01/08 11:18:23;;;;;;;16.05;4.28;;;;;;;3.01;79.68;100464.84;5076353;28;20068;-79
2022/01/08 11:20:56;;;;;;;0.63;0.63;;;;;;;3.04;79.79;100451.03;5082510;28;20037;-79
2022/01/08 11:23:34;;;;;;;0.52;0.52;;;;;;;3.11;80.04;100448.41;5075901;28;20032;-79
2022/01/08 11:26:08;;;;;;;0.40;0.40;;;;;;;3.16;78.51;100445.81;5060866;28;20044;-79
2022/01/08 11:28:43;;;;;;;0.75;0.75;;;;;;;3.24;79.72;100435.44;5091034;28;20435;-79
2022/01/08 11:31:15;;;;;;;0.85;0.85;;;;;;;3.17;77.26;100436.31;5061160;28;20048;-79
2022/01/08 11:33:55;;;;;;;0.50;0.50;;;;;;;3.17;78.19;100432.00;5083025;28;20149;-79
2022/01/08 11:36:26;;;;;;;0.30;0.30;;;;;;;3.30;78.52;100419.88;5078512;28;20535;-79
2022/01/08 11:38:57;;;;;;;0.40;0.40;;;;;;;3.27;78.47;100418.16;5058119;28;20091;-79
2022/01/08 11:41:31;;;;;;;1.10;0.98;;;;;;;3.29;78.90;100412.94;5082693;28;20037;-78
2022/01/08 11:44:04;;;;;;;0.50;0.50;;;;;;;3.36;78.70;100406.03;5051830;29;20032;-78
2022/01/08 11:46:37;;;;;;;4.05;1.25;;;;;;;3.37;78.44;100397.38;5068961;28;20027;-79
2022/01/08 11:49:08;;;;;;;0.40;0.40;;;;;;;3.41;78.24;100394.78;5079412;28;20508;-79
2022/01/08 11:51:39;;;;;;;0.85;0.85;;;;;;;3.42;78.14;100387.84;5072373;28;20320;-79
2022/01/08 11:54:09;;;;;;;0.73;0.73;;;;;;;3.43;77.75;100387.84;5077329;28;20072;-79
2022/01/08 11:56:43;;;;;;;;;;;;;;;3.53;78.43;100380.03;5091453;28;20674;-79
2022/01/08 11:59:20;;;;;;;0.60;0.60;;;;;;;3.49;77.16;100370.56;5071478;28;20328;-79
2022/01/08 12:02:08;;;;;;;0.40;0.40;;;;;;;3.46;77.89;100361.06;5070158;28;20415;-78
2022/01/08 12:04:45;;;;;;;0.70;0.70;;;;;;;3.47;76.92;100360.19;5063436;28;20037;-79
2022/01/08 12:07:30;;;;;;;0.30;0.30;;;;;;;3.57;76.51;100345.44;5080681;28;20048;-79
2022/01/08 12:10:11;;;;;;;1.13;1.13;;;;;;;3.60;77.25;100342.81;5084729;28;20062;-79
2022/01/08 12:12:44;;;;;;;0.80;0.80;;;;;;;3.58;75.72;100339.38;5043554;28;20036;-79
2022/01/08 12:15:16;;;;;;;0.50;0.50;;;;;;;3.59;75.43;100341.13;5033043;28;20043;-78
2022/01/08 12:17:53;;;;;;;0.43;0.43;;;;;;;3.63;76.26;100335.03;5098312;28;20072;-79
2022/01/08 12:20:44;;;;;;;0.50;0.50;;;;;;;3.64;76.05;100334.16;5107194;28;20040;-79
2022/01/08 12:23:39;;;;;;;0.52;0.52;;;;;;;3.72;75.99;100324.59;5079858;28;20051;-79